sensor_id;sensor_type;location;lat;lon;timestamp;P1;durP1;ratioP1;P2;durP2;ratioP2
41333;SDS011;27078;46.428;6.256;2023-12-20T00:00:56;9.20;;;5.40;;
41333;SDS011;27078;46.428;6.256;2023-12-20T00:03:21;9.55;;;6.10;;
41333;SDS011;27078;46.428;6.256;2023-12-20T00:05:47;9.48;;;6.18;;
41333;SDS011;27078;46.428;6.256;2023-12-20T00:08:13;9.13;;;6.07;;
41333;SDS011;27078;46.428;6.256;2023-12-20T00:10:38;9.25;;;5.70;;
41333;SDS011;27078;46.428;6.256;2023-12-20T00:13:04;9.60;;;6.15;;
41333;SDS011;27078;46.428;6.256;2023-12-20T00:15:29;10.15;;;6.30;;
41333;SDS011;27078;46.428;6.256;2023-12-20T00:17:54;11.32;;;6.40;;
41333;SDS011;27078;46.428;6.256;2023-12-20T00:20:20;12.75;;;6.40;;
41333;SDS011;27078;46.428;6.256;2023-12-20T00:22:45;10.18;;;6.50;;
41333;SDS011;27078;46.428;6.256;2023-12-20T00:25:11;10.00;;;5.95;;
41333;SDS011;27078;46.428;6.256;2023-12-20T00:27:36;10.18;;;6.05;;
41333;SDS011;27078;46.428;6.256;2023-12-20T00:30:02;9.70;;;5.82;;
41333;SDS011;27078;46.428;6.256;2023-12-20T00:32:27;10.75;;;6.78;;
41333;SDS011;27078;46.428;6.256;2023-12-20T00:34:52;10.25;;;6.25;;
41333;SDS011;27078;46.428;6.256;2023-12-20T00:37:18;10.90;;;6.60;;
41333;SDS011;27078;46.428;6.256;2023-12-20T00:39:43;13.07;;;6.53;;
41333;SDS011;27078;46.428;6.256;2023-12-20T00:42:08;8.70;;;6.03;;
41333;SDS011;27078;46.428;6.256;2023-12-20T00:44:34;9.88;;;6.03;;
41333;SDS011;27078;46.428;6.256;2023-12-20T00:46:59;10.82;;;6.60;;
41333;SDS011;27078;46.428;6.256;2023-12-20T00:49:24;10.00;;;6.10;;
41333;SDS011;27078;46.428;6.256;2023-12-20T00:51:50;10.65;;;6.38;;
41333;SDS011;27078;46.428;6.256;2023-12-20T00:54:17;10.25;;;6.10;;
41333;SDS011;27078;46.428;6.256;2023-12-20T00:56:42;10.50;;;6.35;;
41333;SDS011;27078;46.428;6.256;2023-12-20T00:59:08;10.10;;;6.03;;
41333;SDS011;27078;46.428;6.256;2023-12-20T01:01:33;10.50;;;6.00;;
41333;SDS011;27078;46.428;6.256;2023-12-20T01:03:58;9.45;;;6.03;;
41333;SDS011;27078;46.428;6.256;2023-12-20T01:06:24;9.23;;;5.63;;
41333;SDS011;27078;46.428;6.256;2023-12-20T01:08:49;8.75;;;5.20;;
41333;SDS011;27078;46.428;6.256;2023-12-20T01:11:14;10.02;;;5.93;;
41333;SDS011;27078;46.428;6.256;2023-12-20T01:13:40;9.77;;;5.70;;
41333;SDS011;27078;46.428;6.256;2023-12-20T01:16:05;9.07;;;5.63;;
41333;SDS011;27078;46.428;6.256;2023-12-20T01:18:31;10.25;;;5.72;;
41333;SDS011;27078;46.428;6.256;2023-12-20T01:21:00;9.15;;;5.28;;
41333;SDS011;27078;46.428;6.256;2023-12-20T01:23:27;10.00;;;5.75;;
41333;SDS011;27078;46.428;6.256;2023-12-20T01:25:52;8.05;;;5.30;;
41333;SDS011;27078;46.428;6.256;2023-12-20T01:28:19;8.68;;;5.57;;
41333;SDS011;27078;46.428;6.256;2023-12-20T01:30:44;8.90;;;5.90;;
41333;SDS011;27078;46.428;6.256;2023-12-20T01:33:09;9.25;;;5.47;;
41333;SDS011;27078;46.428;6.256;2023-12-20T01:35:35;8.57;;;5.40;;
41333;SDS011;27078;46.428;6.256;2023-12-20T01:38:00;8.23;;;5.25;;
41333;SDS011;27078;46.428;6.256;2023-12-20T01:40:25;9.20;;;5.50;;
41333;SDS011;27078;46.428;6.256;2023-12-20T01:43:00;9.25;;;5.53;;
41333;SDS011;27078;46.428;6.256;2023-12-20T01:45:26;11.05;;;5.50;;
41333;SDS011;27078;46.428;6.256;2023-12-20T01:47:52;8.90;;;5.30;;
41333;SDS011;27078;46.428;6.256;2023-12-20T01:50:18;9.05;;;5.38;;
41333;SDS011;27078;46.428;6.256;2023-12-20T01:52:43;8.25;;;5.15;;
41333;SDS011;27078;46.428;6.256;2023-12-20T01:55:10;9.50;;;5.50;;
41333;SDS011;27078;46.428;6.256;2023-12-20T01:57:40;8.23;;;5.07;;
41333;SDS011;27078;46.428;6.256;2023-12-20T02:00:07;8.60;;;5.00;;
41333;SDS011;27078;46.428;6.256;2023-12-20T02:02:34;9.98;;;5.80;;
41333;SDS011;27078;46.428;6.256;2023-12-20T02:05:02;9.57;;;5.50;;
41333;SDS011;27078;46.428;6.256;2023-12-20T02:07:28;8.93;;;5.32;;
41333;SDS011;27078;46.428;6.256;2023-12-20T02:09:55;9.05;;;5.55;;
41333;SDS011;27078;46.428;6.256;2023-12-20T02:12:21;9.90;;;5.50;;
41333;SDS011;27078;46.428;6.256;2023-12-20T02:14:47;8.27;;;5.13;;
41333;SDS011;27078;46.428;6.256;2023-12-20T02:17:12;8.48;;;5.20;;
41333;SDS011;27078;46.428;6.256;2023-12-20T02:19:37;8.85;;;4.93;;
41333;SDS011;27078;46.428;6.256;2023-12-20T02:22:09;9.35;;;5.60;;
41333;SDS011;27078;46.428;6.256;2023-12-20T02:27:00;8.50;;;5.25;;
41333;SDS011;27078;46.428;6.256;2023-12-20T02:29:26;7.85;;;4.90;;
41333;SDS011;27078;46.428;6.256;2023-12-20T02:31:52;8.40;;;5.28;;
41333;SDS011;27078;46.428;6.256;2023-12-20T02:34:17;9.13;;;5.93;;
41333;SDS011;27078;46.428;6.256;2023-12-20T02:36:42;9.60;;;5.63;;
41333;SDS011;27078;46.428;6.256;2023-12-20T02:39:08;9.07;;;5.68;;
41333;SDS011;27078;46.428;6.256;2023-12-20T02:41:33;8.55;;;5.15;;
41333;SDS011;27078;46.428;6.256;2023-12-20T02:43:58;9.43;;;5.82;;
41333;SDS011;27078;46.428;6.256;2023-12-20T02:46:24;8.52;;;5.40;;
41333;SDS011;27078;46.428;6.256;2023-12-20T02:48:49;8.70;;;5.70;;
41333;SDS011;27078;46.428;6.256;2023-12-20T02:51:14;8.73;;;5.50;;
41333;SDS011;27078;46.428;6.256;2023-12-20T02:53:40;8.48;;;5.47;;
41333;SDS011;27078;46.428;6.256;2023-12-20T02:56:05;8.85;;;5.53;;
41333;SDS011;27078;46.428;6.256;2023-12-20T02:58:31;9.68;;;5.55;;
41333;SDS011;27078;46.428;6.256;2023-12-20T03:00:56;9.43;;;5.72;;
41333;SDS011;27078;46.428;6.256;2023-12-20T03:03:22;9.00;;;5.53;;
41333;SDS011;27078;46.428;6.256;2023-12-20T03:05:47;9.30;;;5.63;;
41333;SDS011;27078;46.428;6.256;2023-12-20T03:08:12;8.82;;;5.63;;
41333;SDS011;27078;46.428;6.256;2023-12-20T03:10:38;9.32;;;5.50;;
41333;SDS011;27078;46.428;6.256;2023-12-20T03:13:03;9.45;;;5.25;;
41333;SDS011;27078;46.428;6.256;2023-12-20T03:15:28;9.02;;;5.15;;
41333;SDS011;27078;46.428;6.256;2023-12-20T03:17:54;8.10;;;5.47;;
41333;SDS011;27078;46.428;6.256;2023-12-20T03:20:19;7.93;;;5.30;;
41333;SDS011;27078;46.428;6.256;2023-12-20T03:22:44;8.55;;;5.05;;
41333;SDS011;27078;46.428;6.256;2023-12-20T03:25:10;8.35;;;5.22;;
41333;SDS011;27078;46.428;6.256;2023-12-20T03:27:37;7.93;;;5.18;;
41333;SDS011;27078;46.428;6.256;2023-12-20T03:30:03;8.45;;;5.38;;
41333;SDS011;27078;46.428;6.256;2023-12-20T03:32:29;8.05;;;4.55;;
41333;SDS011;27078;46.428;6.256;2023-12-20T03:34:57;8.20;;;4.95;;
41333;SDS011;27078;46.428;6.256;2023-12-20T03:37:22;9.40;;;5.28;;
41333;SDS011;27078;46.428;6.256;2023-12-20T03:39:48;8.68;;;5.10;;
41333;SDS011;27078;46.428;6.256;2023-12-20T03:42:13;7.50;;;4.90;;
41333;SDS011;27078;46.428;6.256;2023-12-20T03:44:39;8.55;;;5.40;;
41333;SDS011;27078;46.428;6.256;2023-12-20T03:47:05;8.30;;;4.97;;
41333;SDS011;27078;46.428;6.256;2023-12-20T03:49:31;8.13;;;4.78;;
41333;SDS011;27078;46.428;6.256;2023-12-20T03:51:56;8.50;;;5.10;;
41333;SDS011;27078;46.428;6.256;2023-12-20T03:54:21;7.78;;;4.82;;
41333;SDS011;27078;46.428;6.256;2023-12-20T03:56:47;9.20;;;4.97;;
41333;SDS011;27078;46.428;6.256;2023-12-20T03:59:12;7.47;;;4.63;;
41333;SDS011;27078;46.428;6.256;2023-12-20T04:01:37;6.72;;;4.63;;
41333;SDS011;27078;46.428;6.256;2023-12-20T04:04:03;8.23;;;4.85;;
41333;SDS011;27078;46.428;6.256;2023-12-20T04:06:28;7.47;;;4.55;;
41333;SDS011;27078;46.428;6.256;2023-12-20T04:08:54;7.75;;;4.82;;
41333;SDS011;27078;46.428;6.256;2023-12-20T04:11:19;7.78;;;4.60;;
41333;SDS011;27078;46.428;6.256;2023-12-20T04:13:44;8.18;;;5.20;;
41333;SDS011;27078;46.428;6.256;2023-12-20T04:16:10;8.70;;;5.47;;
41333;SDS011;27078;46.428;6.256;2023-12-20T04:18:35;8.82;;;5.47;;
41333;SDS011;27078;46.428;6.256;2023-12-20T04:21:01;8.50;;;5.15;;
41333;SDS011;27078;46.428;6.256;2023-12-20T04:23:26;9.05;;;5.65;;
41333;SDS011;27078;46.428;6.256;2023-12-20T04:25:53;9.73;;;5.32;;
41333;SDS011;27078;46.428;6.256;2023-12-20T04:28:20;10.18;;;5.20;;
41333;SDS011;27078;46.428;6.256;2023-12-20T04:30:45;8.70;;;5.15;;
41333;SDS011;27078;46.428;6.256;2023-12-20T04:33:10;9.88;;;5.40;;
41333;SDS011;27078;46.428;6.256;2023-12-20T04:35:40;8.68;;;5.40;;
41333;SDS011;27078;46.428;6.256;2023-12-20T04:38:23;8.20;;;5.20;;
41333;SDS011;27078;46.428;6.256;2023-12-20T04:40:50;8.35;;;5.10;;
41333;SDS011;27078;46.428;6.256;2023-12-20T04:43:19;9.20;;;5.43;;
41333;SDS011;27078;46.428;6.256;2023-12-20T04:45:45;8.40;;;5.05;;
41333;SDS011;27078;46.428;6.256;2023-12-20T04:48:11;8.57;;;5.35;;
41333;SDS011;27078;46.428;6.256;2023-12-20T04:53:10;8.52;;;5.10;;
41333;SDS011;27078;46.428;6.256;2023-12-20T04:55:36;8.52;;;4.82;;
41333;SDS011;27078;46.428;6.256;2023-12-20T04:58:05;7.70;;;4.90;;
41333;SDS011;27078;46.428;6.256;2023-12-20T05:00:36;7.30;;;4.78;;
41333;SDS011;27078;46.428;6.256;2023-12-20T05:03:03;7.80;;;5.20;;
41333;SDS011;27078;46.428;6.256;2023-12-20T05:05:33;8.95;;;4.85;;
41333;SDS011;27078;46.428;6.256;2023-12-20T05:07:59;8.70;;;5.25;;
41333;SDS011;27078;46.428;6.256;2023-12-20T05:10:25;9.00;;;5.60;;
41333;SDS011;27078;46.428;6.256;2023-12-20T05:12:52;8.73;;;4.88;;
41333;SDS011;27078;46.428;6.256;2023-12-20T05:15:18;9.30;;;5.25;;
41333;SDS011;27078;46.428;6.256;2023-12-20T05:17:45;7.22;;;4.88;;
41333;SDS011;27078;46.428;6.256;2023-12-20T05:20:11;8.57;;;5.32;;
41333;SDS011;27078;46.428;6.256;2023-12-20T05:22:37;9.18;;;5.30;;
41333;SDS011;27078;46.428;6.256;2023-12-20T05:25:04;9.15;;;5.30;;
41333;SDS011;27078;46.428;6.256;2023-12-20T05:27:30;9.18;;;5.63;;
41333;SDS011;27078;46.428;6.256;2023-12-20T05:29:57;8.38;;;5.38;;
41333;SDS011;27078;46.428;6.256;2023-12-20T05:32:23;9.07;;;5.50;;
41333;SDS011;27078;46.428;6.256;2023-12-20T05:34:48;9.70;;;6.00;;
41333;SDS011;27078;46.428;6.256;2023-12-20T05:37:14;9.32;;;5.50;;
41333;SDS011;27078;46.428;6.256;2023-12-20T05:39:39;10.65;;;5.47;;
41333;SDS011;27078;46.428;6.256;2023-12-20T05:42:04;8.98;;;5.78;;
41333;SDS011;27078;46.428;6.256;2023-12-20T05:44:30;8.95;;;5.78;;
41333;SDS011;27078;46.428;6.256;2023-12-20T05:46:55;8.95;;;5.30;;
41333;SDS011;27078;46.428;6.256;2023-12-20T05:49:20;11.05;;;5.97;;
41333;SDS011;27078;46.428;6.256;2023-12-20T05:51:46;9.27;;;5.75;;
41333;SDS011;27078;46.428;6.256;2023-12-20T05:54:12;9.27;;;5.90;;
41333;SDS011;27078;46.428;6.256;2023-12-20T05:56:38;10.93;;;5.88;;
41333;SDS011;27078;46.428;6.256;2023-12-20T05:59:03;9.27;;;5.60;;
41333;SDS011;27078;46.428;6.256;2023-12-20T06:01:29;9.82;;;5.72;;
41333;SDS011;27078;46.428;6.256;2023-12-20T06:03:54;10.52;;;5.80;;
41333;SDS011;27078;46.428;6.256;2023-12-20T06:06:19;8.80;;;5.50;;
41333;SDS011;27078;46.428;6.256;2023-12-20T06:08:45;8.88;;;5.05;;
41333;SDS011;27078;46.428;6.256;2023-12-20T06:11:10;9.32;;;5.20;;
41333;SDS011;27078;46.428;6.256;2023-12-20T06:13:36;8.82;;;4.90;;
41333;SDS011;27078;46.428;6.256;2023-12-20T06:16:01;9.75;;;5.10;;
41333;SDS011;27078;46.428;6.256;2023-12-20T06:18:26;9.05;;;5.10;;
41333;SDS011;27078;46.428;6.256;2023-12-20T06:20:52;8.15;;;4.90;;
41333;SDS011;27078;46.428;6.256;2023-12-20T06:23:17;8.68;;;5.18;;
41333;SDS011;27078;46.428;6.256;2023-12-20T06:25:43;8.80;;;5.10;;
41333;SDS011;27078;46.428;6.256;2023-12-20T06:28:09;9.40;;;5.18;;
41333;SDS011;27078;46.428;6.256;2023-12-20T06:30:35;9.43;;;5.45;;
41333;SDS011;27078;46.428;6.256;2023-12-20T06:33:00;8.35;;;5.28;;
41333;SDS011;27078;46.428;6.256;2023-12-20T06:35:26;8.70;;;5.28;;
41333;SDS011;27078;46.428;6.256;2023-12-20T06:37:51;10.48;;;5.53;;
41333;SDS011;27078;46.428;6.256;2023-12-20T06:40:17;8.68;;;5.22;;
41333;SDS011;27078;46.428;6.256;2023-12-20T06:42:43;8.70;;;5.20;;
41333;SDS011;27078;46.428;6.256;2023-12-20T06:45:09;8.38;;;5.13;;
41333;SDS011;27078;46.428;6.256;2023-12-20T06:47:35;7.55;;;4.88;;
41333;SDS011;27078;46.428;6.256;2023-12-20T06:50:00;8.65;;;5.50;;
41333;SDS011;27078;46.428;6.256;2023-12-20T06:52:26;7.68;;;5.03;;
41333;SDS011;27078;46.428;6.256;2023-12-20T06:54:51;10.13;;;5.22;;
41333;SDS011;27078;46.428;6.256;2023-12-20T06:57:16;7.88;;;5.30;;
41333;SDS011;27078;46.428;6.256;2023-12-20T06:59:42;9.90;;;5.60;;
41333;SDS011;27078;46.428;6.256;2023-12-20T07:02:08;9.50;;;5.53;;
41333;SDS011;27078;46.428;6.256;2023-12-20T07:04:34;9.75;;;5.10;;
41333;SDS011;27078;46.428;6.256;2023-12-20T07:07:03;8.75;;;5.05;;
41333;SDS011;27078;46.428;6.256;2023-12-20T07:09:29;9.68;;;4.80;;
41333;SDS011;27078;46.428;6.256;2023-12-20T07:11:54;9.35;;;5.00;;
41333;SDS011;27078;46.428;6.256;2023-12-20T07:14:19;9.13;;;5.10;;
41333;SDS011;27078;46.428;6.256;2023-12-20T07:16:45;6.93;;;4.60;;
41333;SDS011;27078;46.428;6.256;2023-12-20T07:19:10;9.15;;;5.07;;
41333;SDS011;27078;46.428;6.256;2023-12-20T07:21:35;8.98;;;5.28;;
41333;SDS011;27078;46.428;6.256;2023-12-20T07:24:01;8.93;;;5.72;;
41333;SDS011;27078;46.428;6.256;2023-12-20T07:26:26;9.25;;;5.50;;
41333;SDS011;27078;46.428;6.256;2023-12-20T07:28:51;8.98;;;5.68;;
41333;SDS011;27078;46.428;6.256;2023-12-20T07:31:17;9.57;;;5.65;;
41333;SDS011;27078;46.428;6.256;2023-12-20T07:33:42;9.50;;;5.68;;
41333;SDS011;27078;46.428;6.256;2023-12-20T07:36:07;8.25;;;5.03;;
41333;SDS011;27078;46.428;6.256;2023-12-20T07:38:34;9.68;;;5.80;;
41333;SDS011;27078;46.428;6.256;2023-12-20T07:40:59;8.10;;;5.15;;
41333;SDS011;27078;46.428;6.256;2023-12-20T07:43:25;10.15;;;5.35;;
41333;SDS011;27078;46.428;6.256;2023-12-20T07:45:50;13.63;;;7.00;;
41333;SDS011;27078;46.428;6.256;2023-12-20T07:48:15;12.55;;;6.70;;
41333;SDS011;27078;46.428;6.256;2023-12-20T07:50:41;11.15;;;5.95;;
41333;SDS011;27078;46.428;6.256;2023-12-20T07:53:07;11.65;;;6.40;;
41333;SDS011;27078;46.428;6.256;2023-12-20T07:55:32;10.98;;;6.38;;
41333;SDS011;27078;46.428;6.256;2023-12-20T07:57:58;8.90;;;5.55;;
41333;SDS011;27078;46.428;6.256;2023-12-20T08:00:24;11.15;;;5.78;;
41333;SDS011;27078;46.428;6.256;2023-12-20T08:02:50;9.57;;;6.10;;
41333;SDS011;27078;46.428;6.256;2023-12-20T08:05:15;10.00;;;6.32;;
41333;SDS011;27078;46.428;6.256;2023-12-20T08:07:40;21.35;;;8.88;;
41333;SDS011;27078;46.428;6.256;2023-12-20T08:10:06;9.48;;;5.18;;
41333;SDS011;27078;46.428;6.256;2023-12-20T08:12:32;9.10;;;5.60;;
41333;SDS011;27078;46.428;6.256;2023-12-20T08:14:58;8.30;;;4.93;;
41333;SDS011;27078;46.428;6.256;2023-12-20T08:17:24;9.15;;;5.03;;
41333;SDS011;27078;46.428;6.256;2023-12-20T08:19:49;13.18;;;5.20;;
41333;SDS011;27078;46.428;6.256;2023-12-20T08:22:14;10.18;;;5.20;;
41333;SDS011;27078;46.428;6.256;2023-12-20T08:24:40;8.52;;;4.88;;
41333;SDS011;27078;46.428;6.256;2023-12-20T08:27:05;11.68;;;5.60;;
41333;SDS011;27078;46.428;6.256;2023-12-20T08:29:31;9.52;;;5.93;;
41333;SDS011;27078;46.428;6.256;2023-12-20T08:31:56;9.13;;;5.72;;
41333;SDS011;27078;46.428;6.256;2023-12-20T08:34:22;10.30;;;5.85;;
41333;SDS011;27078;46.428;6.256;2023-12-20T08:36:48;8.38;;;5.38;;
41333;SDS011;27078;46.428;6.256;2023-12-20T08:39:15;10.00;;;5.43;;
41333;SDS011;27078;46.428;6.256;2023-12-20T08:41:40;8.40;;;4.78;;
41333;SDS011;27078;46.428;6.256;2023-12-20T08:44:06;10.32;;;5.63;;
41333;SDS011;27078;46.428;6.256;2023-12-20T08:46:31;8.07;;;4.55;;
41333;SDS011;27078;46.428;6.256;2023-12-20T08:48:56;9.52;;;5.40;;
41333;SDS011;27078;46.428;6.256;2023-12-20T08:51:22;8.57;;;5.60;;
41333;SDS011;27078;46.428;6.256;2023-12-20T08:53:50;9.05;;;5.20;;
41333;SDS011;27078;46.428;6.256;2023-12-20T08:56:15;9.88;;;6.25;;
41333;SDS011;27078;46.428;6.256;2023-12-20T08:58:41;11.85;;;6.75;;
41333;SDS011;27078;46.428;6.256;2023-12-20T09:01:07;11.63;;;6.75;;
41333;SDS011;27078;46.428;6.256;2023-12-20T09:03:32;10.38;;;6.20;;
41333;SDS011;27078;46.428;6.256;2023-12-20T09:05:58;9.98;;;5.80;;
41333;SDS011;27078;46.428;6.256;2023-12-20T09:08:23;10.35;;;6.50;;
41333;SDS011;27078;46.428;6.256;2023-12-20T09:10:48;10.27;;;6.65;;
41333;SDS011;27078;46.428;6.256;2023-12-20T09:13:14;9.63;;;6.30;;
41333;SDS011;27078;46.428;6.256;2023-12-20T09:15:39;10.65;;;6.03;;
41333;SDS011;27078;46.428;6.256;2023-12-20T09:18:05;7.85;;;5.35;;
41333;SDS011;27078;46.428;6.256;2023-12-20T09:20:30;8.25;;;5.32;;
41333;SDS011;27078;46.428;6.256;2023-12-20T09:22:56;9.05;;;5.43;;
41333;SDS011;27078;46.428;6.256;2023-12-20T09:25:21;10.10;;;5.47;;
41333;SDS011;27078;46.428;6.256;2023-12-20T09:27:48;8.10;;;5.43;;
41333;SDS011;27078;46.428;6.256;2023-12-20T09:30:13;8.65;;;5.30;;
41333;SDS011;27078;46.428;6.256;2023-12-20T09:32:39;9.07;;;5.25;;
41333;SDS011;27078;46.428;6.256;2023-12-20T09:35:05;7.40;;;5.13;;
41333;SDS011;27078;46.428;6.256;2023-12-20T09:37:31;11.05;;;5.38;;
41333;SDS011;27078;46.428;6.256;2023-12-20T09:39:56;7.25;;;4.90;;
41333;SDS011;27078;46.428;6.256;2023-12-20T09:45:26;10.93;;;5.85;;
41333;SDS011;27078;46.428;6.256;2023-12-20T09:47:52;8.40;;;5.80;;
41333;SDS011;27078;46.428;6.256;2023-12-20T09:50:19;9.60;;;5.57;;
41333;SDS011;27078;46.428;6.256;2023-12-20T09:52:46;7.90;;;5.40;;
41333;SDS011;27078;46.428;6.256;2023-12-20T09:55:16;12.35;;;6.10;;
41333;SDS011;27078;46.428;6.256;2023-12-20T09:57:43;12.25;;;7.28;;
41333;SDS011;27078;46.428;6.256;2023-12-20T10:00:09;12.48;;;7.68;;
41333;SDS011;27078;46.428;6.256;2023-12-20T10:02:35;15.57;;;6.57;;
41333;SDS011;27078;46.428;6.256;2023-12-20T10:05:03;11.88;;;6.70;;
41333;SDS011;27078;46.428;6.256;2023-12-20T10:07:34;12.60;;;6.00;;
41333;SDS011;27078;46.428;6.256;2023-12-20T10:10:00;14.23;;;7.20;;
41333;SDS011;27078;46.428;6.256;2023-12-20T10:12:27;11.02;;;7.03;;
41333;SDS011;27078;46.428;6.256;2023-12-20T10:14:52;11.15;;;6.95;;
41333;SDS011;27078;46.428;6.256;2023-12-20T10:17:17;10.60;;;6.70;;
41333;SDS011;27078;46.428;6.256;2023-12-20T10:19:43;12.13;;;6.85;;
41333;SDS011;27078;46.428;6.256;2023-12-20T10:22:08;10.85;;;7.03;;
41333;SDS011;27078;46.428;6.256;2023-12-20T10:24:35;10.60;;;6.57;;
41333;SDS011;27078;46.428;6.256;2023-12-20T10:27:01;13.07;;;7.18;;
41333;SDS011;27078;46.428;6.256;2023-12-20T10:29:30;11.70;;;6.85;;
41333;SDS011;27078;46.428;6.256;2023-12-20T10:31:57;10.20;;;6.22;;
41333;SDS011;27078;46.428;6.256;2023-12-20T10:34:23;10.48;;;6.60;;
41333;SDS011;27078;46.428;6.256;2023-12-20T10:36:49;10.60;;;6.57;;
41333;SDS011;27078;46.428;6.256;2023-12-20T10:39:14;10.32;;;6.55;;
41333;SDS011;27078;46.428;6.256;2023-12-20T10:41:40;10.43;;;6.90;;
41333;SDS011;27078;46.428;6.256;2023-12-20T10:44:07;8.88;;;6.28;;
41333;SDS011;27078;46.428;6.256;2023-12-20T10:46:35;11.88;;;6.95;;
41333;SDS011;27078;46.428;6.256;2023-12-20T10:49:04;10.13;;;5.50;;
41333;SDS011;27078;46.428;6.256;2023-12-20T10:51:30;9.00;;;5.20;;
41333;SDS011;27078;46.428;6.256;2023-12-20T10:53:56;9.35;;;4.55;;
41333;SDS011;27078;46.428;6.256;2023-12-20T10:56:22;8.02;;;5.55;;
41333;SDS011;27078;46.428;6.256;2023-12-20T10:58:51;8.73;;;5.57;;
41333;SDS011;27078;46.428;6.256;2023-12-20T11:01:17;10.57;;;5.60;;
41333;SDS011;27078;46.428;6.256;2023-12-20T11:03:44;9.57;;;6.18;;
41333;SDS011;27078;46.428;6.256;2023-12-20T11:09:09;7.88;;;5.03;;
41333;SDS011;27078;46.428;6.256;2023-12-20T11:14:23;7.95;;;5.80;;
41333;SDS011;27078;46.428;6.256;2023-12-20T11:17:09;9.18;;;5.25;;
41333;SDS011;27078;46.428;6.256;2023-12-20T11:19:37;8.40;;;5.15;;
41333;SDS011;27078;46.428;6.256;2023-12-20T11:22:08;10.57;;;4.97;;
41333;SDS011;27078;46.428;6.256;2023-12-20T11:24:34;9.30;;;4.80;;
41333;SDS011;27078;46.428;6.256;2023-12-20T11:27:02;6.70;;;4.28;;
41333;SDS011;27078;46.428;6.256;2023-12-20T11:29:32;9.35;;;6.03;;
41333;SDS011;27078;46.428;6.256;2023-12-20T11:32:03;10.65;;;6.32;;
41333;SDS011;27078;46.428;6.256;2023-12-20T11:34:32;8.93;;;5.82;;
41333;SDS011;27078;46.428;6.256;2023-12-20T11:37:02;10.85;;;6.35;;
41333;SDS011;27078;46.428;6.256;2023-12-20T11:39:28;10.65;;;5.65;;
41333;SDS011;27078;46.428;6.256;2023-12-20T11:41:55;9.82;;;6.75;;
41333;SDS011;27078;46.428;6.256;2023-12-20T11:44:22;4.53;;;2.50;;
41333;SDS011;27078;46.428;6.256;2023-12-20T11:46:47;10.55;;;6.65;;
41333;SDS011;27078;46.428;6.256;2023-12-20T11:49:13;6.85;;;4.00;;
41333;SDS011;27078;46.428;6.256;2023-12-20T11:51:41;1.40;;;0.90;;
41333;SDS011;27078;46.428;6.256;2023-12-20T11:54:07;1.33;;;0.55;;
41333;SDS011;27078;46.428;6.256;2023-12-20T11:56:34;0.80;;;0.40;;
41333;SDS011;27078;46.428;6.256;2023-12-20T11:59:00;0.93;;;0.50;;
41333;SDS011;27078;46.428;6.256;2023-12-20T12:01:26;1.05;;;0.60;;
41333;SDS011;27078;46.428;6.256;2023-12-20T12:04:02;1.13;;;0.50;;
41333;SDS011;27078;46.428;6.256;2023-12-20T12:06:31;1.02;;;0.47;;
41333;SDS011;27078;46.428;6.256;2023-12-20T12:08:56;1.00;;;0.45;;
41333;SDS011;27078;46.428;6.256;2023-12-20T12:11:22;1.73;;;0.40;;
41333;SDS011;27078;46.428;6.256;2023-12-20T12:13:48;1.67;;;0.52;;
41333;SDS011;27078;46.428;6.256;2023-12-20T12:16:16;0.77;;;0.50;;
41333;SDS011;27078;46.428;6.256;2023-12-20T12:18:43;0.73;;;0.40;;
41333;SDS011;27078;46.428;6.256;2023-12-20T12:21:09;0.98;;;0.35;;
41333;SDS011;27078;46.428;6.256;2023-12-20T12:23:34;0.98;;;0.43;;
41333;SDS011;27078;46.428;6.256;2023-12-20T12:26:00;1.02;;;0.40;;
41333;SDS011;27078;46.428;6.256;2023-12-20T12:28:29;0.50;;;0.30;;
41333;SDS011;27078;46.428;6.256;2023-12-20T12:30:57;1.27;;;0.40;;
41333;SDS011;27078;46.428;6.256;2023-12-20T12:33:24;0.55;;;0.28;;
41333;SDS011;27078;46.428;6.256;2023-12-20T12:35:50;0.90;;;0.32;;
41333;SDS011;27078;46.428;6.256;2023-12-20T12:38:16;0.90;;;0.40;;
41333;SDS011;27078;46.428;6.256;2023-12-20T12:40:42;0.65;;;0.40;;
41333;SDS011;27078;46.428;6.256;2023-12-20T12:43:08;1.63;;;0.45;;
41333;SDS011;27078;46.428;6.256;2023-12-20T12:45:34;0.57;;;0.28;;
41333;SDS011;27078;46.428;6.256;2023-12-20T12:47:59;0.60;;;0.25;;
41333;SDS011;27078;46.428;6.256;2023-12-20T12:50:24;2.33;;;0.50;;
41333;SDS011;27078;46.428;6.256;2023-12-20T12:52:50;0.93;;;0.30;;
41333;SDS011;27078;46.428;6.256;2023-12-20T12:55:15;1.40;;;0.40;;
41333;SDS011;27078;46.428;6.256;2023-12-20T12:57:40;1.23;;;0.28;;
41333;SDS011;27078;46.428;6.256;2023-12-20T13:00:06;0.60;;;0.30;;
41333;SDS011;27078;46.428;6.256;2023-12-20T13:02:34;1.20;;;0.30;;
41333;SDS011;27078;46.428;6.256;2023-12-20T13:04:59;0.88;;;0.30;;
41333;SDS011;27078;46.428;6.256;2023-12-20T13:07:26;1.20;;;0.60;;
41333;SDS011;27078;46.428;6.256;2023-12-20T13:09:51;0.82;;;0.40;;
41333;SDS011;27078;46.428;6.256;2023-12-20T13:12:17;1.38;;;0.60;;
41333;SDS011;27078;46.428;6.256;2023-12-20T13:14:42;1.08;;;0.47;;
41333;SDS011;27078;46.428;6.256;2023-12-20T13:17:07;1.25;;;0.43;;
41333;SDS011;27078;46.428;6.256;2023-12-20T13:19:33;2.85;;;0.70;;
41333;SDS011;27078;46.428;6.256;2023-12-20T13:21:58;1.60;;;0.70;;
41333;SDS011;27078;46.428;6.256;2023-12-20T13:24:23;1.52;;;0.52;;
41333;SDS011;27078;46.428;6.256;2023-12-20T13:26:49;2.78;;;0.73;;
41333;SDS011;27078;46.428;6.256;2023-12-20T13:29:14;1.10;;;0.80;;
41333;SDS011;27078;46.428;6.256;2023-12-20T13:31:40;2.00;;;0.80;;
41333;SDS011;27078;46.428;6.256;2023-12-20T13:34:05;1.00;;;0.73;;
41333;SDS011;27078;46.428;6.256;2023-12-20T13:36:31;1.92;;;0.77;;
41333;SDS011;27078;46.428;6.256;2023-12-20T13:38:57;2.08;;;1.00;;
41333;SDS011;27078;46.428;6.256;2023-12-20T13:41:22;2.50;;;0.93;;
41333;SDS011;27078;46.428;6.256;2023-12-20T13:43:48;3.92;;;1.17;;
41333;SDS011;27078;46.428;6.256;2023-12-20T13:46:13;1.48;;;0.82;;
41333;SDS011;27078;46.428;6.256;2023-12-20T13:48:39;1.70;;;0.80;;
41333;SDS011;27078;46.428;6.256;2023-12-20T13:51:04;1.85;;;0.82;;
41333;SDS011;27078;46.428;6.256;2023-12-20T13:53:30;1.70;;;0.80;;
41333;SDS011;27078;46.428;6.256;2023-12-20T13:55:56;2.55;;;0.70;;
41333;SDS011;27078;46.428;6.256;2023-12-20T13:58:22;2.72;;;1.00;;
41333;SDS011;27078;46.428;6.256;2023-12-20T14:00:48;1.55;;;0.88;;
41333;SDS011;27078;46.428;6.256;2023-12-20T14:03:13;2.00;;;0.98;;
41333;SDS011;27078;46.428;6.256;2023-12-20T14:05:39;1.10;;;0.70;;
41333;SDS011;27078;46.428;6.256;2023-12-20T14:08:04;2.08;;;0.95;;
41333;SDS011;27078;46.428;6.256;2023-12-20T14:10:30;3.17;;;0.85;;
41333;SDS011;27078;46.428;6.256;2023-12-20T14:12:55;2.67;;;0.70;;
41333;SDS011;27078;46.428;6.256;2023-12-20T14:15:21;2.65;;;0.77;;
41333;SDS011;27078;46.428;6.256;2023-12-20T14:17:46;2.45;;;0.80;;
41333;SDS011;27078;46.428;6.256;2023-12-20T14:20:12;3.55;;;0.70;;
41333;SDS011;27078;46.428;6.256;2023-12-20T14:22:38;3.55;;;0.60;;
41333;SDS011;27078;46.428;6.256;2023-12-20T14:25:05;3.20;;;0.75;;
41333;SDS011;27078;46.428;6.256;2023-12-20T14:27:31;2.63;;;0.57;;
41333;SDS011;27078;46.428;6.256;2023-12-20T14:29:56;1.27;;;0.52;;
41333;SDS011;27078;46.428;6.256;2023-12-20T14:32:23;1.23;;;0.30;;
41333;SDS011;27078;46.428;6.256;2023-12-20T14:34:51;1.67;;;0.40;;
41333;SDS011;27078;46.428;6.256;2023-12-20T14:37:16;1.83;;;0.30;;
41333;SDS011;27078;46.428;6.256;2023-12-20T14:39:42;2.13;;;0.30;;
41333;SDS011;27078;46.428;6.256;2023-12-20T14:42:08;1.13;;;0.32;;
41333;SDS011;27078;46.428;6.256;2023-12-20T14:44:37;1.88;;;0.40;;
41333;SDS011;27078;46.428;6.256;2023-12-20T14:47:02;1.77;;;0.40;;
41333;SDS011;27078;46.428;6.256;2023-12-20T14:49:28;2.03;;;0.40;;
41333;SDS011;27078;46.428;6.256;2023-12-20T14:51:53;2.40;;;0.30;;